sensor_id;sensor_type;location;lat;lon;timestamp;pressure;altitude;pressure_sealevel;temperature;humidity
47104;BME280;32853;52.164;5.400;2023-03-12T00:00:39;101089.59;;;4.31;91.94
47104;BME280;32853;52.164;5.400;2023-03-12T00:03:14;101076.63;;;4.36;92.14
47104;BME280;32853;52.164;5.400;2023-03-12T00:05:41;101073.97;;;4.41;91.95
47104;BME280;32853;52.164;5.400;2023-03-12T00:08:07;101071.41;;;4.37;88.95
47104;BME280;32853;52.164;5.400;2023-03-12T00:10:32;101071.41;;;4.39;87.96
47104;BME280;32853;52.164;5.400;2023-03-12T00:12:59;101070.50;;;4.42;86.44
47104;BME280;32853;52.164;5.400;2023-03-12T00:17:59;101058.38;;;4.47;85.25
47104;BME280;32853;52.164;5.400;2023-03-12T00:20:30;101060.13;;;4.45;85.70
47104;BME280;32853;52.164;5.400;2023-03-12T00:22:55;101060.09;;;4.48;86.97
47104;BME280;32853;52.164;5.400;2023-03-12T00:25:20;101058.34;;;4.48;86.39
47104;BME280;32853;52.164;5.400;2023-03-12T00:27:46;101051.47;;;4.47;86.93
47104;BME280;32853;52.164;5.400;2023-03-12T00:30:16;101047.13;;;4.48;88.45
47104;BME280;32853;52.164;5.400;2023-03-12T00:32:44;101054.00;;;4.52;86.59
47104;BME280;32853;52.164;5.400;2023-03-12T00:35:10;101060.94;;;4.48;86.78
47104;BME280;32853;52.164;5.400;2023-03-12T00:37:37;101057.44;;;4.52;85.43
47104;BME280;32853;52.164;5.400;2023-03-12T00:40:04;101059.09;;;4.59;85.27
47104;BME280;32853;52.164;5.400;2023-03-12T00:42:30;101058.25;;;4.57;86.89
47104;BME280;32853;52.164;5.400;2023-03-12T00:44:55;101050.44;;;4.60;85.68
47104;BME280;32853;52.164;5.400;2023-03-12T00:47:20;101052.25;;;4.55;88.11
47104;BME280;32853;52.164;5.400;2023-03-12T00:49:45;101051.41;;;4.52;87.77
47104;BME280;32853;52.164;5.400;2023-03-12T00:52:11;101048.78;;;4.53;86.86
47104;BME280;32853;52.164;5.400;2023-03-12T00:54:36;101044.47;;;4.55;86.71
47104;BME280;32853;52.164;5.400;2023-03-12T00:57:01;101046.16;;;4.58;86.94
47104;BME280;32853;52.164;5.400;2023-03-12T00:59:27;101045.31;;;4.54;88.26
47104;BME280;32853;52.164;5.400;2023-03-12T01:02:01;101047.06;;;4.52;88.31
47104;BME280;32853;52.164;5.400;2023-03-12T01:04:26;101039.38;;;4.48;92.02
47104;BME280;32853;52.164;5.400;2023-03-12T01:06:52;101038.44;;;4.53;91.52
47104;BME280;32853;52.164;5.400;2023-03-12T01:09:24;101024.59;;;4.56;89.54
47104;BME280;32853;52.164;5.400;2023-03-12T01:11:57;101009.06;;;4.54;89.48
47104;BME280;32853;52.164;5.400;2023-03-12T01:14:26;101004.81;;;4.49;90.24
47104;BME280;32853;52.164;5.400;2023-03-12T01:16:54;101007.41;;;4.49;90.07
47104;BME280;32853;52.164;5.400;2023-03-12T01:19:19;101000.56;;;4.45;89.19
47104;BME280;32853;52.164;5.400;2023-03-12T01:21:45;101002.19;;;4.52;89.48
47104;BME280;32853;52.164;5.400;2023-03-12T01:24:13;101011.75;;;4.48;89.12
47104;BME280;32853;52.164;5.400;2023-03-12T01:26:38;101005.66;;;4.51;87.96
47104;BME280;32853;52.164;5.400;2023-03-12T01:29:12;101004.84;;;4.47;90.21
47104;BME280;32853;52.164;5.400;2023-03-12T01:31:38;101016.88;;;4.51;89.41
47104;BME280;32853;52.164;5.400;2023-03-12T01:34:08;101010.06;;;4.44;91.54
47104;BME280;32853;52.164;5.400;2023-03-12T01:36:34;101012.53;;;4.53;90.01
47104;BME280;32853;52.164;5.400;2023-03-12T01:38:59;101015.13;;;4.53;90.30
47104;BME280;32853;52.164;5.400;2023-03-12T01:44:21;101004.75;;;4.55;89.09
47104;BME280;32853;52.164;5.400;2023-03-12T01:46:46;101001.34;;;4.51;91.14
47104;BME280;32853;52.164;5.400;2023-03-12T01:49:15;100992.78;;;4.43;90.70
47104;BME280;32853;52.164;5.400;2023-03-12T01:51:44;100999.75;;;4.40;90.36
47104;BME280;32853;52.164;5.400;2023-03-12T01:54:32;100998.84;;;4.44;90.36
47104;BME280;32853;52.164;5.400;2023-03-12T01:56:57;100998.78;;;4.50;89.77
47104;BME280;32853;52.164;5.400;2023-03-12T02:02:11;100990.09;;;4.52;88.76
47104;BME280;32853;52.164;5.400;2023-03-12T02:04:39;100984.06;;;4.52;89.09
47104;BME280;32853;52.164;5.400;2023-03-12T02:07:09;100985.72;;;4.57;89.86
47104;BME280;32853;52.164;5.400;2023-03-12T02:09:36;100980.59;;;4.53;90.12
47104;BME280;32853;52.164;5.400;2023-03-12T02:12:05;100969.38;;;4.52;89.61
47104;BME280;32853;52.164;5.400;2023-03-12T02:14:41;100965.88;;;4.56;90.01
47104;BME280;32853;52.164;5.400;2023-03-12T02:17:07;100965.81;;;4.61;91.14
47104;BME280;32853;52.164;5.400;2023-03-12T02:25:20;100946.75;;;4.65;88.16
47104;BME280;32853;52.164;5.400;2023-03-12T02:27:50;100949.41;;;4.60;89.42
47104;BME280;32853;52.164;5.400;2023-03-12T02:30:18;100945.94;;;4.63;90.61
47104;BME280;32853;52.164;5.400;2023-03-12T02:32:47;100935.53;;;4.66;90.83
47104;BME280;32853;52.164;5.400;2023-03-12T02:35:18;100935.53;;;4.66;91.35
47104;BME280;32853;52.164;5.400;2023-03-12T02:37:48;100938.09;;;4.69;90.32
47104;BME280;32853;52.164;5.400;2023-03-12T02:40:38;100927.66;;;4.72;89.17
47104;BME280;32853;52.164;5.400;2023-03-12T02:43:04;100929.47;;;4.69;88.53
47104;BME280;32853;52.164;5.400;2023-03-12T02:45:29;100919.00;;;4.75;88.92
47104;BME280;32853;52.164;5.400;2023-03-12T02:47:55;100932.00;;;4.72;90.18
47104;BME280;32853;52.164;5.400;2023-03-12T02:50:20;100934.50;;;4.76;92.76
47104;BME280;32853;52.164;5.400;2023-03-12T02:52:46;100924.16;;;4.78;91.17
47104;BME280;32853;52.164;5.400;2023-03-12T02:55:11;100917.31;;;4.72;93.51
47104;BME280;32853;52.164;5.400;2023-03-12T02:57:36;100904.31;;;4.77;91.64
47104;BME280;32853;52.164;5.400;2023-03-12T03:00:08;100897.38;;;4.77;91.63
47104;BME280;32853;52.164;5.400;2023-03-12T03:05:12;100899.91;;;4.82;90.98
47104;BME280;32853;52.164;5.400;2023-03-12T03:07:37;100890.38;;;4.82;88.92
47104;BME280;32853;52.164;5.400;2023-03-12T03:10:03;100892.03;;;4.86;89.13
47104;BME280;32853;52.164;5.400;2023-03-12T03:12:32;100886.81;;;4.89;90.45
47104;BME280;32853;52.164;5.400;2023-03-12T03:14:59;100881.69;;;4.88;89.78
47104;BME280;32853;52.164;5.400;2023-03-12T03:17:25;100878.03;;;4.98;88.79
47104;BME280;32853;52.164;5.400;2023-03-12T03:19:50;100876.41;;;4.92;89.77
47104;BME280;32853;52.164;5.400;2023-03-12T03:22:16;100882.47;;;4.91;89.98
47104;BME280;32853;52.164;5.400;2023-03-12T03:24:41;100882.38;;;4.96;88.15
47104;BME280;32853;52.164;5.400;2023-03-12T03:27:07;100877.25;;;4.93;88.74
47104;BME280;32853;52.164;5.400;2023-03-12T03:29:32;100865.97;;;4.95;88.66
47104;BME280;32853;52.164;5.400;2023-03-12T03:31:57;100858.53;;;4.77;91.16
47104;BME280;32853;52.164;5.400;2023-03-12T03:34:22;100852.50;;;4.77;90.95
47104;BME280;32853;52.164;5.400;2023-03-12T03:36:48;100849.00;;;4.78;91.36
47104;BME280;32853;52.164;5.400;2023-03-12T03:39:13;100840.31;;;4.80;91.92
47104;BME280;32853;52.164;5.400;2023-03-12T03:44:15;100845.56;;;4.77;92.04
47104;BME280;32853;52.164;5.400;2023-03-12T03:46:41;100838.41;;;4.91;92.59
47104;BME280;32853;52.164;5.400;2023-03-12T03:49:16;100836.66;;;4.93;90.00
47104;BME280;32853;52.164;5.400;2023-03-12T03:51:42;100821.13;;;4.92;90.10
47104;BME280;32853;52.164;5.400;2023-03-12T03:54:08;100818.44;;;4.96;90.38
47104;BME280;32853;52.164;5.400;2023-03-12T03:56:34;100808.00;;;5.03;89.91
47104;BME280;32853;52.164;5.400;2023-03-12T03:59:00;100808.13;;;4.95;89.75
47104;BME280;32853;52.164;5.400;2023-03-12T04:01:27;100809.78;;;4.99;88.64
47104;BME280;32853;52.164;5.400;2023-03-12T04:03:52;100822.66;;;5.04;87.98
47104;BME280;32853;52.164;5.400;2023-03-12T04:06:23;100825.16;;;5.08;88.34
47104;BME280;32853;52.164;5.400;2023-03-12T04:08:49;100826.00;;;5.09;88.18
47104;BME280;32853;52.164;5.400;2023-03-12T04:11:19;100825.88;;;5.16;88.44
47104;BME280;32853;52.164;5.400;2023-03-12T04:13:44;100823.59;;;5.00;87.40
47104;BME280;32853;52.164;5.400;2023-03-12T04:16:12;100819.13;;;5.08;87.86
47104;BME280;32853;52.164;5.400;2023-03-12T04:18:37;100820.97;;;5.01;90.13
47104;BME280;32853;52.164;5.400;2023-03-12T04:21:07;100819.41;;;4.91;91.75
47104;BME280;32853;52.164;5.400;2023-03-12T04:23:41;100808.13;;;4.95;91.77
47104;BME280;32853;52.164;5.400;2023-03-12T04:28:45;100815.84;;;4.96;94.11
47104;BME280;32853;52.164;5.400;2023-03-12T04:31:10;100804.59;;;4.97;94.00
47104;BME280;32853;52.164;5.400;2023-03-12T04:33:37;100809.06;;;4.91;95.42
47104;BME280;32853;52.164;5.400;2023-03-12T04:36:03;100798.63;;;4.94;96.42
47104;BME280;32853;52.164;5.400;2023-03-12T04:38:29;100798.72;;;4.89;99.83
47104;BME280;32853;52.164;5.400;2023-03-12T04:43:43;100786.72;;;4.84;100.00
47104;BME280;32853;52.164;5.400;2023-03-12T04:46:09;100787.50;;;4.87;100.00
47104;BME280;32853;52.164;5.400;2023-03-12T04:51:26;100785.84;;;4.83;100.00
47104;BME280;32853;52.164;5.400;2023-03-12T04:53:51;100777.50;;;4.68;100.00
47104;BME280;32853;52.164;5.400;2023-03-12T04:56:22;100767.78;;;4.80;100.00
47104;BME280;32853;52.164;5.400;2023-03-12T04:58:47;100747.06;;;4.80;100.00
47104;BME280;32853;52.164;5.400;2023-03-12T05:01:46;100746.16;;;4.81;100.00
47104;BME280;32853;52.164;5.400;2023-03-12T05:04:04;100738.41;;;4.81;100.00
47104;BME280;32853;52.164;5.400;2023-03-12T05:06:30;100736.69;;;4.80;100.00
47104;BME280;32853;52.164;5.400;2023-03-12T05:08:55;100726.38;;;4.76;100.00
47104;BME280;32853;52.164;5.400;2023-03-12T05:11:21;100717.75;;;4.75;100.00
47104;BME280;32853;52.164;5.400;2023-03-12T05:13:46;100722.16;;;4.72;100.00
47104;BME280;32853;52.164;5.400;2023-03-12T05:16:13;100718.97;;;4.57;100.00
47104;BME280;32853;52.164;5.400;2023-03-12T05:18:38;100717.81;;;4.74;100.00
47104;BME280;32853;52.164;5.400;2023-03-12T05:21:08;100712.50;;;4.81;100.00
47104;BME280;32853;52.164;5.400;2023-03-12T05:23:34;100705.72;;;4.73;100.00
47104;BME280;32853;52.164;5.400;2023-03-12T05:25:59;100709.91;;;4.81;100.00
47104;BME280;32853;52.164;5.400;2023-03-12T05:28:24;100703.00;;;4.80;100.00
47104;BME280;32853;52.164;5.400;2023-03-12T05:30:53;100705.47;;;4.86;100.00
47104;BME280;32853;52.164;5.400;2023-03-12T05:33:18;100710.75;;;4.82;100.00
47104;BME280;32853;52.164;5.400;2023-03-12T05:35:43;100706.44;;;4.81;100.00
47104;BME280;32853;52.164;5.400;2023-03-12T05:38:08;100702.88;;;4.86;100.00
47104;BME280;32853;52.164;5.400;2023-03-12T05:40:34;100702.81;;;4.91;100.00
47104;BME280;32853;52.164;5.400;2023-03-12T05:42:59;100701.28;;;4.81;100.00
47104;BME280;32853;52.164;5.400;2023-03-12T05:45:24;100698.38;;;4.96;100.00
47104;BME280;32853;52.164;5.400;2023-03-12T05:47:49;100701.97;;;4.90;100.00
47104;BME280;32853;52.164;5.400;2023-03-12T05:50:15;100692.28;;;5.00;100.00
47104;BME280;32853;52.164;5.400;2023-03-12T05:52:40;100681.34;;;4.84;100.00
47104;BME280;32853;52.164;5.400;2023-03-12T05:55:06;100677.84;;;4.85;100.00
47104;BME280;32853;52.164;5.400;2023-03-12T05:57:31;100682.28;;;4.80;100.00
47104;BME280;32853;52.164;5.400;2023-03-12T05:59:56;100678.63;;;4.90;100.00
47104;BME280;32853;52.164;5.400;2023-03-12T06:02:22;100681.06;;;5.00;100.00
47104;BME280;32853;52.164;5.400;2023-03-12T06:04:47;100687.09;;;5.00;100.00
47104;BME280;32853;52.164;5.400;2023-03-12T06:07:12;100685.38;;;4.97;100.00
47104;BME280;32853;52.164;5.400;2023-03-12T06:09:38;100681.91;;;4.99;100.00
47104;BME280;32853;52.164;5.400;2023-03-12T06:12:04;100674.47;;;4.82;100.00
47104;BME280;32853;52.164;5.400;2023-03-12T06:14:29;100681.25;;;4.87;100.00
47104;BME280;32853;52.164;5.400;2023-03-12T06:19:22;100694.19;;;4.90;100.00
47104;BME280;32853;52.164;5.400;2023-03-12T06:21:48;100686.34;;;4.93;100.00
47104;BME280;32853;52.164;5.400;2023-03-12T06:24:13;100684.59;;;4.94;100.00
47104;BME280;32853;52.164;5.400;2023-03-12T06:26:38;100694.09;;;4.95;100.00
47104;BME280;32853;52.164;5.400;2023-03-12T06:29:04;100689.78;;;4.94;100.00
47104;BME280;32853;52.164;5.400;2023-03-12T06:31:29;100678.47;;;5.00;100.00
47104;BME280;32853;52.164;5.400;2023-03-12T06:33:55;100683.78;;;4.92;100.00
47104;BME280;32853;52.164;5.400;2023-03-12T06:36:20;100682.25;;;4.82;100.00
47104;BME280;32853;52.164;5.400;2023-03-12T06:41:32;100669.88;;;4.96;100.00
47104;BME280;32853;52.164;5.400;2023-03-12T06:44:01;100677.78;;;4.90;100.00
47104;BME280;32853;52.164;5.400;2023-03-12T06:46:32;100676.09;;;4.87;100.00
47104;BME280;32853;52.164;5.400;2023-03-12T06:48:57;100669.16;;;4.89;100.00
47104;BME280;32853;52.164;5.400;2023-03-12T06:51:22;100663.16;;;4.86;100.00
47104;BME280;32853;52.164;5.400;2023-03-12T06:53:47;100653.78;;;4.80;100.00
47104;BME280;32853;52.164;5.400;2023-03-12T06:56:17;100648.47;;;4.86;100.00
47104;BME280;32853;52.164;5.400;2023-03-12T06:58:42;100649.38;;;4.84;100.00
47104;BME280;32853;52.164;5.400;2023-03-12T07:01:07;100641.78;;;4.75;100.00
47104;BME280;32853;52.164;5.400;2023-03-12T07:03:33;100637.63;;;4.68;100.00
47104;BME280;32853;52.164;5.400;2023-03-12T07:05:58;100627.09;;;4.77;100.00
47104;BME280;32853;52.164;5.400;2023-03-12T07:08:24;100627.72;;;4.88;100.00
47104;BME280;32853;52.164;5.400;2023-03-12T07:10:50;100625.19;;;4.85;100.00
47104;BME280;32853;52.164;5.400;2023-03-12T07:13:15;100601.16;;;4.78;100.00
47104;BME280;32853;52.164;5.400;2023-03-12T07:15:40;100603.63;;;4.83;100.00
47104;BME280;32853;52.164;5.400;2023-03-12T07:18:13;100607.16;;;4.80;100.00
47104;BME280;32853;52.164;5.400;2023-03-12T07:20:39;100611.50;;;4.78;100.00
47104;BME280;32853;52.164;5.400;2023-03-12T07:23:05;100597.72;;;4.78;100.00
47104;BME280;32853;52.164;5.400;2023-03-12T07:25:30;100621.84;;;4.80;100.00
47104;BME280;32853;52.164;5.400;2023-03-12T07:27:55;100627.81;;;4.83;100.00
47104;BME280;32853;52.164;5.400;2023-03-12T07:32:51;100611.50;;;4.78;100.00
47104;BME280;32853;52.164;5.400;2023-03-12T07:35:16;100616.63;;;4.81;100.00
47104;BME280;32853;52.164;5.400;2023-03-12T07:37:41;100618.31;;;4.82;100.00
47104;BME280;32853;52.164;5.400;2023-03-12T07:40:07;100639.09;;;4.81;100.00
47104;BME280;32853;52.164;5.400;2023-03-12T07:42:32;100650.16;;;4.87;100.00
47104;BME280;32853;52.164;5.400;2023-03-12T07:44:58;100633.41;;;4.62;100.00
47104;BME280;32853;52.164;5.400;2023-03-12T07:47:23;100653.66;;;4.86;100.00
47104;BME280;32853;52.164;5.400;2023-03-12T07:49:48;100651.59;;;5.04;100.00
47104;BME280;32853;52.164;5.400;2023-03-12T07:52:13;100650.81;;;5.00;100.00
47104;BME280;32853;52.164;5.400;2023-03-12T07:54:39;100658.34;;;5.12;100.00
47104;BME280;32853;52.164;5.400;2023-03-12T07:57:04;100657.63;;;5.04;100.00
47104;BME280;32853;52.164;5.400;2023-03-12T07:59:30;100676.31;;;5.21;100.00
47104;BME280;32853;52.164;5.400;2023-03-12T08:01:55;100663.97;;;5.33;100.00
47104;BME280;32853;52.164;5.400;2023-03-12T08:04:20;100655.41;;;5.28;100.00
47104;BME280;32853;52.164;5.400;2023-03-12T08:06:45;100657.19;;;5.25;100.00
47104;BME280;32853;52.164;5.400;2023-03-12T08:09:11;100656.41;;;5.20;100.00
47104;BME280;32853;52.164;5.400;2023-03-12T08:11:36;100642.28;;;5.35;100.00
47104;BME280;32853;52.164;5.400;2023-03-12T08:14:02;100641.94;;;5.12;100.00
47104;BME280;32853;52.164;5.400;2023-03-12T08:16:27;100640.44;;;5.40;100.00
47104;BME280;32853;52.164;5.400;2023-03-12T08:18:52;100633.72;;;5.32;100.00
47104;BME280;32853;52.164;5.400;2023-03-12T08:21:18;100630.88;;;5.42;100.00
47104;BME280;32853;52.164;5.400;2023-03-12T08:26:11;100632.47;;;5.49;100.00
47104;BME280;32853;52.164;5.400;2023-03-12T08:28:36;100637.78;;;5.45;100.00
47104;BME280;32853;52.164;5.400;2023-03-12T08:31:02;100639.41;;;5.49;100.00
47104;BME280;32853;52.164;5.400;2023-03-12T08:33:27;100640.13;;;5.54;100.00
47104;BME280;32853;52.164;5.400;2023-03-12T08:38:46;100626.91;;;5.65;100.00
47104;BME280;32853;52.164;5.400;2023-03-12T08:41:11;100636.41;;;5.67;100.00
47104;BME280;32853;52.164;5.400;2023-03-12T08:43:37;100632.94;;;5.67;100.00
47104;BME280;32853;52.164;5.400;2023-03-12T08:46:05;100644.84;;;5.75;100.00
47104;BME280;32853;52.164;5.400;2023-03-12T08:48:30;100636.78;;;5.88;100.00
47104;BME280;32853;52.164;5.400;2023-03-12T08:50:56;100626.19;;;5.97;100.00
47104;BME280;32853;52.164;5.400;2023-03-12T08:53:22;100631.50;;;5.92;100.00
47104;BME280;32853;52.164;5.400;2023-03-12T08:55:48;100640.88;;;5.99;100.00
47104;BME280;32853;52.164;5.400;2023-03-12T08:58:15;100636.59;;;5.97;100.00
47104;BME280;32853;52.164;5.400;2023-03-12T09:00:41;100644.19;;;6.04;100.00
47104;BME280;32853;52.164;5.400;2023-03-12T09:03:06;100648.41;;;6.08;100.00
47104;BME280;32853;52.164;5.400;2023-03-12T09:05:31;100640.75;;;6.04;100.00
47104;BME280;32853;52.164;5.400;2023-03-12T09:07:56;100645.16;;;6.00;100.00
47104;BME280;32853;52.164;5.400;2023-03-12T09:10:22;100649.00;;;6.20;100.00
47104;BME280;32853;52.164;5.400;2023-03-12T09:12:47;100646.44;;;6.18;100.00
47104;BME280;32853;52.164;5.400;2023-03-12T09:15:12;100639.31;;;6.26;100.00
47104;BME280;32853;52.164;5.400;2023-03-12T09:17:38;100646.72;;;6.41;100.00
47104;BME280;32853;52.164;5.400;2023-03-12T09:20:03;100631.75;;;6.51;100.00
47104;BME280;32853;52.164;5.400;2023-03-12T09:22:32;100628.09;;;6.58;100.00
47104;BME280;32853;52.164;5.400;2023-03-12T09:24:57;100627.91;;;6.66;100.00
47104;BME280;32853;52.164;5.400;2023-03-12T09:27:22;100625.31;;;6.66;100.00
47104;BME280;32853;52.164;5.400;2023-03-12T09:29:47;100615.38;;;6.80;100.00
47104;BME280;32853;52.164;5.400;2023-03-12T09:32:15;100614.34;;;6.86;100.00
47104;BME280;32853;52.164;5.400;2023-03-12T09:34:40;100623.53;;;6.97;100.00
47104;BME280;32853;52.164;5.400;2023-03-12T09:37:06;100619.06;;;7.03;100.00
47104;BME280;32853;52.164;5.400;2023-03-12T09:39:31;100631.66;;;7.16;100.00
47104;BME280;32853;52.164;5.400;2023-03-12T09:41:56;100633.09;;;7.26;100.00
47104;BME280;32853;52.164;5.400;2023-03-12T09:44:29;100631.63;;;7.18;100.00
47104;BME280;32853;52.164;5.400;2023-03-12T09:46:57;100636.38;;;7.33;100.00
47104;BME280;32853;52.164;5.400;2023-03-12T09:49:35;100626.41;;;7.47;100.00
47104;BME280;32853;52.164;5.400;2023-03-12T09:52:04;100628.00;;;7.51;100.00
47104;BME280;32853;52.164;5.400;2023-03-12T09:55:15;100632.81;;;7.65;100.00
47104;BME280;32853;52.164;5.400;2023-03-12T09:57:23;100628.06;;;7.78;100.00
47104;BME280;32853;52.164;5.400;2023-03-12T09:59:50;100630.16;;;7.93;100.00
47104;BME280;32853;52.164;5.400;2023-03-12T10:05:05;100636.63;;;8.08;100.00
47104;BME280;32853;52.164;5.400;2023-03-12T10:07:36;100636.53;;;8.11;100.00
47104;BME280;32853;52.164;5.400;2023-03-12T10:10:08;100634.44;;;8.22;100.00
47104;BME280;32853;52.164;5.400;2023-03-12T10:12:42;100641.13;;;8.29;100.00
47104;BME280;32853;52.164;5.400;2023-03-12T10:17:48;100643.59;;;8.34;100.00
47104;BME280;32853;52.164;5.400;2023-03-12T10:26:11;100635.75;;;8.60;100.00
47104;BME280;32853;52.164;5.400;2023-03-12T10:28:39;100628.41;;;8.71;100.00
47104;BME280;32853;52.164;5.400;2023-03-12T10:31:11;100634.31;;;8.77;100.00
47104;BME280;32853;52.164;5.400;2023-03-12T10:33:40;100630.56;;;8.84;100.00
47104;BME280;32853;52.164;5.400;2023-03-12T10:36:27;100631.03;;;8.95;100.00
47104;BME280;32853;52.164;5.400;2023-03-12T10:38:53;100629.22;;;8.97;100.00
47104;BME280;32853;52.164;5.400;2023-03-12T10:41:20;100636.78;;;9.05;100.00
47104;BME280;32853;52.164;5.400;2023-03-12T10:43:46;100637.34;;;9.13;100.00
47104;BME280;32853;52.164;5.400;2023-03-12T10:49:21;100621.75;;;9.35;100.00
47104;BME280;32853;52.164;5.400;2023-03-12T10:54:21;100621.50;;;9.63;100.00
47104;BME280;32853;52.164;5.400;2023-03-12T10:56:50;100624.47;;;9.75;100.00
47104;BME280;32853;52.164;5.400;2023-03-12T10:59:19;100633.84;;;9.81;100.00
47104;BME280;32853;52.164;5.400;2023-03-12T11:01:46;100629.94;;;9.91;100.00
47104;BME280;32853;52.164;5.400;2023-03-12T11:04:17;100623.69;;;9.95;100.00
47104;BME280;32853;52.164;5.400;2023-03-12T11:06:43;100638.75;;;10.10;100.00
47104;BME280;32853;52.164;5.400;2023-03-12T11:09:26;100633.03;;;10.23;100.00
47104;BME280;32853;52.164;5.400;2023-03-12T11:11:53;100630.50;;;10.19;100.00
47104;BME280;32853;52.164;5.400;2023-03-12T11:14:23;100630.63;;;10.16;100.00
47104;BME280;32853;52.164;5.400;2023-03-12T11:16:49;100639.25;;;10.18;100.00
47104;BME280;32853;52.164;5.400;2023-03-12T11:22:10;100660.53;;;10.53;100.00
47104;BME280;32853;52.164;5.400;2023-03-12T11:27:43;100657.22;;;10.48;100.00
47104;BME280;32853;52.164;5.400;2023-03-12T11:30:10;100661.09;;;10.60;100.00
47104;BME280;32853;52.164;5.400;2023-03-12T11:32:36;100658.69;;;10.55;100.00
47104;BME280;32853;52.164;5.400;2023-03-12T11:35:11;100654.63;;;10.48;100.00
47104;BME280;32853;52.164;5.400;2023-03-12T11:47:46;100657.75;;;10.76;100.00
47104;BME280;32853;52.164;5.400;2023-03-12T11:53:03;100638.63;;;10.95;100.00
47104;BME280;32853;52.164;5.400;2023-03-12T12:05:44;100627.47;;;10.71;100.00
47104;BME280;32853;52.164;5.400;2023-03-12T12:10:57;100616.31;;;10.67;100.00
47104;BME280;32853;52.164;5.400;2023-03-12T12:18:41;100621.78;;;10.82;100.00
47104;BME280;32853;52.164;5.400;2023-03-12T12:23:57;100611.28;;;11.02;100.00
47104;BME280;32853;52.164;5.400;2023-03-12T12:27:16;100629.66;;;11.19;100.00
47104;BME280;32853;52.164;5.400;2023-03-12T12:29:31;100613.66;;;10.88;100.00
47104;BME280;32853;52.164;5.400;2023-03-12T12:32:00;100606.53;;;10.91;100.00
47104;BME280;32853;52.164;5.400;2023-03-12T12:37:15;100589.97;;;10.91;100.00
47104;BME280;32853;52.164;5.400;2023-03-12T12:43:02;100603.13;;;11.27;100.00
47104;BME280;32853;52.164;5.400;2023-03-12T12:45:23;100608.38;;;11.46;100.00
47104;BME280;32853;52.164;5.400;2023-03-12T12:48:00;100610.50;;;11.56;100.00
47104;BME280;32853;52.164;5.400;2023-03-12T12:50:31;100603.91;;;11.48;100.00
47104;BME280;32853;52.164;5.400;2023-03-12T12:53:02;100597.22;;;11.42;100.00
47104;BME280;32853;52.164;5.400;2023-03-12T12:55:31;100597.75;;;11.49;100.00
47104;BME280;32853;52.164;5.400;2023-03-12T12:58:01;100584.91;;;11.61;100.00
47104;BME280;32853;52.164;5.400;2023-03-12T13:00:37;100583.88;;;11.66;100.00
47104;BME280;32853;52.164;5.400;2023-03-12T13:03:16;100576.13;;;11.81;100.00
47104;BME280;32853;52.164;5.400;2023-03-12T13:05:47;100581.38;;;11.81;100.00
47104;BME280;32853;52.164;5.400;2023-03-12T13:13:47;100563.25;;;11.94;100.00
47104;BME280;32853;52.164;5.400;2023-03-12T13:16:32;100573.94;;;12.08;100.00
47104;BME280;32853;52.164;5.400;2023-03-12T13:18:59;100568.81;;;12.23;100.00
47104;BME280;32853;52.164;5.400;2023-03-12T13:21:30;100593.00;;;11.93;100.00
47104;BME280;32853;52.164;5.400;2023-03-12T13:24:42;100575.59;;;11.92;100.00
47104;BME280;32853;52.164;5.400;2023-03-12T13:29:34;100573.84;;;12.10;100.00
47104;BME280;32853;52.164;5.400;2023-03-12T13:32:03;100574.59;;;11.95;100.00
47104;BME280;32853;52.164;5.400;2023-03-12T13:34:30;100576.69;;;12.05;100.00
47104;BME280;32853;52.164;5.400;2023-03-12T13:36:57;100578.38;;;12.06;100.00
47104;BME280;32853;52.164;5.400;2023-03-12T13:39:32;100583.81;;;11.84;100.00
47104;BME280;32853;52.164;5.400;2023-03-12T13:41:59;100577.38;;;11.91;100.00
47104;BME280;32853;52.164;5.400;2023-03-12T13:52:23;100603.72;;;12.06;100.00
47104;BME280;32853;52.164;5.400;2023-03-12T13:54:55;100596.06;;;12.20;100.00
47104;BME280;32853;52.164;5.400;2023-03-12T13:59:56;100579.91;;;12.45;100.00
47104;BME280;32853;52.164;5.400;2023-03-12T14:02:32;100586.09;;;12.44;100.00
47104;BME280;32853;52.164;5.400;2023-03-12T14:05:06;100594.25;;;12.55;100.00
47104;BME280;32853;52.164;5.400;2023-03-12T14:07:39;100591.75;;;12.69;100.00
47104;BME280;32853;52.164;5.400;2023-03-12T14:12:47;100597.63;;;12.90;100.00
47104;BME280;32853;52.164;5.400;2023-03-12T14:17:40;100604.56;;;13.24;100.00
47104;BME280;32853;52.164;5.400;2023-03-12T14:22:36;100613.75;;;13.16;100.00
47104;BME280;32853;52.164;5.400;2023-03-12T14:25:04;100621.91;;;13.11;100.00
47104;BME280;32853;52.164;5.400;2023-03-12T14:27:31;100620.78;;;13.15;100.00
47104;BME280;32853;52.164;5.400;2023-03-12T14:29:58;100631.69;;;13.07;100.00
47104;BME280;32853;52.164;5.400;2023-03-12T14:32:28;100642.00;;;12.95;100.00
47104;BME280;32853;52.164;5.400;2023-03-12T14:37:26;100652.00;;;12.88;100.00
47104;BME280;32853;52.164;5.400;2023-03-12T14:39:53;100639.94;;;12.84;100.00
47104;BME280;32853;52.164;5.400;2023-03-12T14:42:37;100632.50;;;12.76;100.00
47104;BME280;32853;52.164;5.400;2023-03-12T14:45:12;100621.63;;;13.00;100.00
47104;BME280;32853;52.164;5.400;2023-03-12T14:47:38;100634.22;;;12.93;100.00
47104;BME280;32853;52.164;5.400;2023-03-12T14:50:03;100625.31;;;12.96;100.00
47104;BME280;32853;52.164;5.400;2023-03-12T14:52:31;100634.13;;;12.95;100.00
47104;BME280;32853;52.164;5.400;2023-03-12T14:55:02;100638.31;;;12.82;100.00
47104;BME280;32853;52.164;5.400;2023-03-12T14:57:28;100647.41;;;12.59;100.00
47104;BME280;32853;52.164;5.400;2023-03-12T14:59:54;100648.16;;;12.61;100.00
47104;BME280;32853;52.164;5.400;2023-03-12T15:02:20;100652.47;;;12.62;100.00
47104;BME280;32853;52.164;5.400;2023-03-12T15:04:48;100639.59;;;12.57;100.00